createdAt,value
2023-01-07T00:01:40.147Z,97.21
2023-01-07T00:04:10.721Z,97.05
2023-01-07T00:06:40.016Z,96.95
2023-01-07T00:09:10.162Z,96.75
2023-01-07T00:11:39.425Z,96.61
2023-01-07T00:14:09.734Z,96.55
2023-01-07T00:16:37.874Z,96.44
2023-01-07T00:19:07.497Z,96.55
2023-01-07T00:21:35.337Z,96.65
2023-01-07T00:24:05.891Z,96.58
2023-01-07T00:26:36.968Z,96.61
2023-01-07T00:29:06.167Z,97.12
2023-01-07T00:31:36.183Z,96.78
2023-01-07T00:34:04.442Z,97.04
2023-01-07T00:36:35.528Z,96.85
2023-01-07T00:39:06.515Z,97.03
2023-01-07T00:41:34.351Z,96.78
2023-01-07T00:44:01.983Z,97.02
2023-01-07T00:46:29.927Z,97.07
2023-01-07T00:48:58.047Z,97.11
2023-01-07T00:51:25.783Z,97.12
2023-01-07T00:53:53.485Z,97.27
2023-01-07T00:56:21.328Z,97.21
2023-01-07T00:58:49.226Z,97.36
2023-01-07T01:01:17.468Z,97.38
2023-01-07T01:03:46.071Z,97.06
2023-01-07T01:06:15.838Z,96.85
2023-01-07T01:08:47.277Z,96.75
2023-01-07T01:11:15.996Z,96.55
2023-01-07T01:13:44.571Z,96.81
2023-01-07T01:16:17.289Z,96.84
2023-01-07T01:18:45.955Z,96.72
2023-01-07T01:21:14.956Z,96.53
2023-01-07T01:23:43.174Z,96.42
2023-01-07T01:26:17.013Z,96.30
2023-01-07T01:28:46.117Z,96.25
2023-01-07T01:31:14.648Z,96.01
2023-01-07T01:33:42.473Z,96.18
2023-01-07T01:36:12.009Z,95.86
2023-01-07T01:38:40.522Z,95.86
2023-01-07T01:41:08.089Z,95.87
2023-01-07T01:43:39.185Z,95.97
2023-01-07T01:46:12.481Z,95.91
2023-01-07T01:48:43.917Z,96.25
2023-01-07T01:51:13.418Z,95.90
2023-01-07T01:53:41.059Z,95.89
2023-01-07T01:56:11.885Z,95.86
2023-01-07T01:58:43.493Z,95.84
2023-01-07T02:01:11.738Z,95.83
2023-01-07T02:03:39.956Z,95.79
2023-01-07T02:06:09.963Z,95.78
2023-01-07T02:08:38.498Z,95.74
2023-01-07T02:11:30.802Z,95.64
2023-01-07T02:14:16.605Z,95.58
2023-01-07T02:16:58.675Z,95.48
2023-01-07T02:20:00.149Z,95.59
2023-01-07T02:23:05.568Z,95.83
2023-01-07T02:26:16.055Z,96.11
2023-01-07T02:29:03.763Z,97.84
2023-01-07T02:31:50.410Z,98.24
2023-01-07T02:34:23.995Z,98.66
2023-01-07T02:37:16.653Z,98.71
2023-01-07T02:39:50.623Z,99.11
2023-01-07T02:43:05.416Z,98.81
2023-01-07T02:45:59.271Z,98.78
2023-01-07T02:48:28.094Z,99.69
2023-01-07T02:50:56.061Z,100.00
2023-01-07T02:53:23.595Z,100.00
2023-01-07T02:56:52.614Z,100.00
2023-01-07T02:59:22.904Z,99.88
2023-01-07T03:02:21.136Z,99.10
2023-01-07T03:05:18.832Z,98.64
2023-01-07T03:07:55.667Z,98.16
2023-01-07T03:10:32.620Z,97.73
2023-01-07T03:13:05.166Z,97.42
2023-01-07T03:15:45.838Z,97.11
2023-01-07T03:18:19.516Z,97.14
2023-01-07T03:20:50.219Z,97.02
2023-01-07T03:23:21.583Z,96.90
2023-01-07T03:25:52.473Z,96.64
2023-01-07T03:28:25.156Z,96.41
2023-01-07T03:30:55.058Z,96.19
2023-01-07T03:33:27.793Z,97.35
2023-01-07T03:35:56.416Z,97.14
2023-01-07T03:38:26.461Z,97.01
2023-01-07T03:44:16.636Z,97.00
2023-01-07T03:46:44.693Z,96.62
2023-01-07T03:49:12.612Z,96.46
2023-01-07T03:51:40.301Z,96.69
2023-01-07T03:54:09.285Z,97.50
2023-01-07T03:56:36.921Z,97.80
2023-01-07T03:59:04.423Z,97.56
2023-01-07T04:01:32.544Z,97.45
2023-01-07T04:04:03.124Z,97.37
2023-01-07T04:06:31.116Z,97.49
2023-01-07T04:08:59.276Z,97.75
2023-01-07T04:11:27.726Z,97.61
2023-01-07T04:13:57.230Z,97.51
2023-01-07T04:16:24.945Z,97.18
2023-01-07T04:18:52.907Z,97.37
2023-01-07T04:21:21.181Z,96.82
2023-01-07T04:23:48.701Z,98.10
2023-01-07T04:26:16.448Z,98.38
2023-01-07T04:28:44.386Z,99.93
2023-01-07T04:31:12.746Z,100.00
2023-01-07T04:33:40.947Z,99.32
2023-01-07T04:36:09.123Z,98.58
2023-01-07T04:38:37.947Z,98.58
2023-01-07T04:41:05.872Z,98.51
2023-01-07T04:43:35.268Z,98.12
2023-01-07T04:46:03.794Z,97.88
2023-01-07T04:48:31.986Z,97.68
2023-01-07T04:51:00.254Z,97.42
2023-01-07T04:53:27.993Z,97.98
2023-01-07T04:55:56.143Z,97.81
2023-01-07T04:58:24.861Z,98.39
2023-01-07T05:00:55.456Z,98.08
2023-01-07T05:03:23.388Z,98.22
2023-01-07T05:05:52.024Z,98.03
2023-01-07T05:08:20.953Z,97.86
2023-01-07T05:10:52.682Z,97.51
2023-01-07T05:13:22.422Z,97.21
2023-01-07T05:15:50.719Z,97.06
2023-01-07T05:18:19.346Z,96.88
2023-01-07T05:20:50.421Z,96.86
2023-01-07T05:23:19.221Z,97.41
2023-01-07T05:25:46.798Z,97.31
2023-01-07T05:28:14.511Z,97.35
2023-01-07T05:30:43.008Z,97.20
2023-01-07T05:33:11.300Z,97.25
2023-01-07T05:35:38.940Z,97.15
2023-01-07T05:38:07.069Z,97.14
2023-01-07T05:40:34.666Z,97.05
2023-01-07T05:43:02.207Z,97.18
2023-01-07T05:45:30.121Z,97.79
2023-01-07T05:47:57.708Z,99.10
2023-01-07T05:50:25.344Z,100.00
2023-01-07T05:52:53.220Z,99.50
2023-01-07T05:55:20.739Z,100.00
2023-01-07T05:57:48.333Z,99.72
2023-01-07T06:00:16.565Z,99.05
2023-01-07T06:02:44.901Z,99.28
2023-01-07T06:05:12.587Z,98.89
2023-01-07T06:07:40.155Z,99.33
2023-01-07T06:10:08.319Z,99.31
2023-01-07T06:12:35.927Z,99.13
2023-01-07T06:15:03.599Z,99.03
2023-01-07T06:17:31.458Z,99.13
2023-01-07T06:20:00.288Z,99.62
2023-01-07T06:22:27.813Z,99.74
2023-01-07T06:24:55.640Z,100.00
2023-01-07T06:27:23.420Z,100.00
2023-01-07T06:29:51.768Z,100.00
2023-01-07T06:32:19.620Z,100.00
2023-01-07T06:34:47.214Z,100.00
2023-01-07T06:37:15.001Z,100.00
2023-01-07T06:39:42.871Z,100.00
2023-01-07T06:42:10.452Z,100.00
2023-01-07T06:44:37.903Z,100.00
2023-01-07T06:47:05.760Z,100.00
2023-01-07T06:49:33.331Z,100.00
2023-01-07T06:52:00.887Z,100.00
2023-01-07T06:54:28.738Z,100.00
2023-01-07T06:56:56.201Z,100.00
2023-01-07T06:59:23.689Z,100.00
2023-01-07T07:01:52.064Z,100.00
2023-01-07T07:04:22.143Z,100.00
2023-01-07T07:06:49.704Z,100.00
2023-01-07T07:09:17.699Z,100.00
2023-01-07T07:11:45.537Z,100.00
2023-01-07T07:14:13.232Z,100.00
2023-01-07T07:16:41.106Z,100.00
2023-01-07T07:19:08.687Z,100.00
2023-01-07T07:21:36.244Z,100.00
2023-01-07T07:24:04.344Z,100.00
2023-01-07T07:26:31.914Z,100.00
2023-01-07T07:28:59.477Z,100.00
2023-01-07T07:31:27.389Z,100.00
2023-01-07T07:33:55.024Z,100.00
2023-01-07T07:36:22.544Z,100.00
2023-01-07T07:38:50.431Z,100.00
2023-01-07T07:41:17.997Z,100.00
2023-01-07T07:43:45.558Z,100.00
2023-01-07T07:46:13.655Z,100.00
2023-01-07T07:48:41.385Z,100.00
2023-01-07T07:51:08.959Z,100.00
2023-01-07T07:53:37.223Z,100.00
2023-01-07T07:56:07.855Z,100.00
2023-01-07T07:58:35.410Z,100.00
2023-01-07T08:01:03.661Z,100.00
2023-01-07T08:03:31.586Z,100.00
2023-01-07T08:05:59.723Z,100.00
2023-01-07T08:08:27.267Z,100.00
2023-01-07T08:10:56.008Z,100.00
2023-01-07T08:13:23.665Z,100.00
2023-01-07T08:15:51.347Z,100.00
2023-01-07T08:18:19.922Z,100.00
2023-01-07T08:20:47.474Z,100.00
2023-01-07T08:23:15.500Z,100.00
2023-01-07T08:25:43.390Z,100.00
2023-01-07T08:28:11.374Z,100.00
2023-01-07T08:30:39.311Z,100.00
2023-01-07T08:33:08.399Z,100.00
2023-01-07T08:35:36.155Z,100.00
2023-01-07T08:38:09.103Z,100.00
2023-01-07T08:40:37.480Z,100.00
2023-01-07T08:43:07.332Z,100.00
2023-01-07T08:45:34.853Z,100.00
2023-01-07T08:48:03.161Z,99.82
2023-01-07T08:50:32.473Z,99.95
2023-01-07T08:53:00.344Z,99.24
2023-01-07T08:55:28.130Z,99.58
2023-01-07T08:57:56.183Z,99.12
2023-01-07T09:00:23.887Z,99.60
2023-01-07T09:02:51.759Z,99.22
2023-01-07T09:05:19.426Z,99.27
2023-01-07T09:07:47.192Z,99.45
2023-01-07T09:10:15.125Z,98.68
2023-01-07T09:12:42.640Z,98.43
2023-01-07T09:15:10.687Z,99.14
2023-01-07T09:17:38.576Z,99.16
2023-01-07T09:20:07.329Z,98.82
2023-01-07T09:22:35.912Z,97.73
2023-01-07T09:25:05.640Z,98.60
2023-01-07T09:27:33.456Z,98.81
2023-01-07T09:30:01.157Z,98.57
2023-01-07T09:32:29.529Z,98.43
2023-01-07T09:34:56.979Z,98.14
2023-01-07T09:37:24.523Z,97.39
2023-01-07T09:39:52.375Z,97.28
2023-01-07T09:42:38.865Z,97.19
2023-01-07T09:45:17.410Z,97.11
2023-01-07T09:47:48.508Z,97.05
2023-01-07T09:50:25.407Z,97.44
2023-01-07T09:52:55.825Z,97.45
2023-01-07T09:55:35.611Z,96.85
2023-01-07T09:58:03.873Z,95.85
2023-01-07T10:00:33.445Z,95.81
2023-01-07T10:03:05.337Z,96.18
2023-01-07T10:06:11.312Z,96.37
2023-01-07T10:08:47.987Z,96.20
2023-01-07T10:11:29.760Z,95.15
2023-01-07T10:14:17.724Z,93.86
2023-01-07T10:17:35.600Z,93.15
2023-01-07T10:20:24.912Z,93.66
2023-01-07T10:22:57.024Z,92.54
2023-01-07T10:25:27.756Z,92.22
2023-01-07T10:27:56.404Z,91.39
2023-01-07T10:30:27.285Z,91.31
2023-01-07T10:33:16.725Z,90.27
2023-01-07T10:35:48.637Z,90.90
2023-01-07T10:38:19.864Z,89.91
2023-01-07T10:40:52.499Z,90.33
2023-01-07T10:43:42.565Z,89.18
2023-01-07T10:46:28.772Z,89.35
2023-01-07T10:49:09.002Z,89.12
2023-01-07T10:52:14.792Z,90.45
2023-01-07T10:55:04.312Z,90.45
2023-01-07T10:57:33.094Z,91.63
2023-01-07T11:00:04.419Z,91.76
2023-01-07T11:02:32.375Z,91.46
2023-01-07T11:05:00.272Z,91.74
2023-01-07T11:07:41.416Z,88.85
2023-01-07T11:10:14.489Z,88.59
2023-01-07T11:12:51.598Z,89.24
2023-01-07T11:15:31.740Z,90.30
2023-01-07T11:18:12.610Z,89.36
2023-01-07T11:20:46.638Z,89.14
2023-01-07T11:23:35.943Z,88.61
2023-01-07T11:26:25.581Z,88.93
2023-01-07T11:28:54.985Z,86.54
2023-01-07T11:31:42.848Z,86.40
2023-01-07T11:34:38.246Z,86.56
2023-01-07T11:37:05.922Z,87.69
2023-01-07T11:39:35.786Z,87.83
2023-01-07T11:42:35.711Z,88.07
2023-01-07T11:45:12.456Z,86.61
2023-01-07T11:47:46.384Z,87.73
2023-01-07T11:50:42.957Z,87.45
2023-01-07T11:53:13.428Z,86.95
2023-01-07T11:56:00.843Z,86.77
2023-01-07T11:58:31.511Z,85.29
2023-01-07T12:01:03.579Z,85.62
2023-01-07T12:03:31.826Z,84.47
2023-01-07T12:06:05.934Z,84.28
2023-01-07T12:08:34.009Z,84.44
2023-01-07T12:11:09.216Z,84.25
2023-01-07T12:13:40.014Z,83.64
2023-01-07T12:16:08.984Z,83.00
2023-01-07T12:19:03.065Z,80.78
2023-01-07T12:21:35.315Z,81.77
2023-01-07T12:24:33.720Z,82.04
2023-01-07T12:27:07.473Z,81.05
2023-01-07T12:30:06.751Z,80.05
2023-01-07T12:33:02.171Z,79.51
2023-01-07T12:35:32.758Z,79.14
2023-01-07T12:38:05.576Z,78.53
2023-01-07T12:40:37.167Z,78.10
2023-01-07T12:43:13.710Z,76.93
2023-01-07T12:45:52.431Z,76.52
2023-01-07T12:48:36.167Z,77.75
2023-01-07T12:51:12.652Z,78.09
2023-01-07T12:53:53.332Z,76.71
2023-01-07T12:56:24.640Z,77.50
2023-01-07T12:58:57.715Z,77.22
2023-01-07T13:01:30.012Z,75.98
2023-01-07T13:04:19.709Z,74.01
2023-01-07T13:06:53.744Z,74.44
2023-01-07T13:09:27.765Z,73.01
2023-01-07T13:12:41.997Z,75.05
2023-01-07T13:15:20.844Z,74.72
2023-01-07T13:17:50.870Z,75.11
2023-01-07T13:20:43.377Z,75.01
2023-01-07T13:23:18.924Z,73.78
2023-01-07T13:26:11.121Z,74.79
2023-01-07T13:29:05.105Z,74.69
2023-01-07T13:31:44.643Z,74.94
2023-01-07T13:34:22.604Z,74.95
2023-01-07T13:37:16.744Z,75.88
2023-01-07T13:40:01.617Z,75.75
2023-01-07T13:42:54.813Z,75.94
2023-01-07T13:45:31.341Z,76.51
2023-01-07T13:48:00.895Z,77.27
2023-01-07T13:50:44.897Z,77.92
2023-01-07T13:53:32.194Z,77.92
2023-01-07T13:56:20.302Z,78.61
2023-01-07T13:58:53.666Z,78.12
2023-01-07T14:01:29.775Z,78.73
2023-01-07T14:03:58.764Z,79.12
2023-01-07T14:06:47.956Z,79.32
2023-01-07T14:09:25.902Z,79.70
2023-01-07T14:12:23.891Z,80.14
2023-01-07T14:14:51.893Z,80.68
2023-01-07T14:17:37.913Z,81.00
2023-01-07T14:20:32.581Z,81.29
2023-01-07T14:23:25.084Z,82.24
2023-01-07T14:26:15.400Z,82.28
2023-01-07T14:28:48.946Z,82.75
2023-01-07T14:31:25.049Z,83.05
2023-01-07T14:33:58.591Z,83.38
2023-01-07T14:37:01.649Z,83.70
2023-01-07T14:39:32.240Z,84.32
2023-01-07T14:42:18.879Z,84.45
2023-01-07T14:44:52.696Z,86.04
2023-01-07T14:47:45.606Z,85.89
2023-01-07T14:50:32.960Z,86.21
2023-01-07T14:53:23.976Z,86.43
2023-01-07T14:56:00.884Z,86.88
2023-01-07T14:59:06.657Z,87.10
2023-01-07T15:01:43.433Z,87.42
2023-01-07T15:04:45.822Z,87.76
2023-01-07T15:07:19.025Z,87.92
2023-01-07T15:10:13.017Z,88.14
2023-01-07T15:13:00.230Z,88.57
2023-01-07T15:15:54.745Z,88.72
2023-01-07T15:18:22.855Z,89.02
2023-01-07T15:21:19.292Z,89.89
2023-01-07T15:23:52.731Z,90.58
2023-01-07T15:26:45.693Z,90.16
2023-01-07T15:29:22.303Z,90.27
2023-01-07T15:32:11.662Z,90.33
2023-01-07T15:34:39.949Z,90.42
2023-01-07T15:37:08.851Z,90.57
2023-01-07T15:39:41.429Z,90.58
2023-01-07T15:42:16.994Z,90.52
2023-01-07T15:44:44.624Z,90.54
2023-01-07T15:47:35.751Z,90.64
2023-01-07T15:50:33.990Z,90.78
2023-01-07T15:53:04.013Z,91.24
2023-01-07T15:55:39.100Z,91.46
2023-01-07T15:58:12.720Z,91.46
2023-01-07T16:00:40.733Z,91.50
2023-01-07T16:03:14.959Z,92.39
2023-01-07T16:05:43.147Z,93.22
2023-01-07T16:08:31.821Z,93.17
2023-01-07T16:10:59.264Z,93.79
2023-01-07T16:13:27.119Z,95.15
2023-01-07T16:15:56.965Z,95.16
2023-01-07T16:18:24.658Z,95.46
2023-01-07T16:21:03.960Z,94.34
2023-01-07T16:23:36.354Z,94.00
2023-01-07T16:26:16.915Z,94.19
2023-01-07T16:28:50.101Z,94.44
2023-01-07T16:31:20.748Z,94.56
2023-01-07T16:33:50.877Z,94.98
2023-01-07T16:36:29.242Z,95.69
2023-01-07T16:38:58.964Z,96.06
2023-01-07T16:41:30.093Z,96.24
2023-01-07T16:44:00.951Z,96.22
2023-01-07T16:46:34.423Z,96.15
2023-01-07T16:49:11.137Z,95.38
2023-01-07T16:51:42.151Z,95.64
2023-01-07T16:54:25.321Z,95.85
2023-01-07T16:56:54.627Z,96.13
2023-01-07T16:59:25.162Z,96.46
2023-01-07T17:01:53.426Z,96.59
2023-01-07T17:04:28.003Z,96.46
2023-01-07T17:07:00.830Z,96.17
2023-01-07T17:09:28.384Z,95.68
2023-01-07T17:11:56.332Z,95.37
2023-01-07T17:14:38.809Z,95.23
2023-01-07T17:17:20.955Z,95.52
2023-01-07T17:20:00.485Z,95.29
2023-01-07T17:22:34.199Z,95.47
2023-01-07T17:25:25.812Z,95.86
2023-01-07T17:27:55.901Z,95.95
2023-01-07T17:30:27.098Z,95.73
2023-01-07T17:32:54.851Z,95.68
2023-01-07T17:35:24.465Z,95.54
2023-01-07T17:37:53.010Z,96.06
2023-01-07T17:40:21.105Z,96.07
2023-01-07T17:43:08.641Z,96.18
2023-01-07T17:45:36.482Z,96.16
2023-01-07T17:48:11.981Z,95.85
2023-01-07T17:50:40.118Z,95.64
2023-01-07T17:53:23.487Z,95.84
2023-01-07T17:55:51.362Z,95.90
2023-01-07T17:58:28.795Z,96.05
2023-01-07T18:00:57.864Z,96.07
2023-01-07T18:03:25.998Z,96.97
2023-01-07T18:05:53.696Z,96.52
2023-01-07T18:08:21.227Z,96.87
2023-01-07T18:11:08.217Z,96.75
2023-01-07T18:13:35.749Z,97.12
2023-01-07T18:16:03.833Z,97.96
2023-01-07T18:18:31.631Z,99.10
2023-01-07T18:20:59.225Z,97.88
2023-01-07T18:23:27.150Z,97.48
2023-01-07T18:25:55.257Z,97.31
2023-01-07T18:28:22.771Z,97.10
2023-01-07T18:30:50.600Z,96.84
2023-01-07T18:33:18.071Z,96.68
2023-01-07T18:35:47.696Z,96.63
2023-01-07T18:38:16.383Z,96.60
2023-01-07T18:40:44.049Z,96.22
2023-01-07T18:43:15.575Z,96.06
2023-01-07T18:45:45.055Z,96.06
2023-01-07T18:48:14.032Z,96.44
2023-01-07T18:50:42.984Z,96.94
2023-01-07T18:53:11.158Z,97.27
2023-01-07T18:55:39.692Z,97.89
2023-01-07T18:58:08.129Z,97.54
2023-01-07T19:00:36.118Z,97.33
2023-01-07T19:03:03.780Z,97.10
2023-01-07T19:05:31.515Z,96.96
2023-01-07T19:07:59.640Z,96.75
2023-01-07T19:10:27.539Z,96.43
2023-01-07T19:12:55.286Z,96.09
2023-01-07T19:15:23.000Z,95.72
2023-01-07T19:17:50.558Z,95.91
2023-01-07T19:20:18.261Z,95.89
2023-01-07T19:22:46.163Z,96.02
2023-01-07T19:25:14.273Z,95.95
2023-01-07T19:27:42.136Z,95.94
2023-01-07T19:30:10.499Z,95.88
2023-01-07T19:32:38.077Z,95.93
2023-01-07T19:35:05.928Z,95.87
2023-01-07T19:37:37.475Z,96.46
2023-01-07T19:40:06.297Z,96.36
2023-01-07T19:42:34.346Z,96.59
2023-01-07T19:45:03.247Z,96.66
2023-01-07T19:47:32.411Z,96.60
2023-01-07T19:50:00.282Z,96.29
2023-01-07T19:52:27.864Z,96.07
2023-01-07T19:54:55.472Z,95.87
2023-01-07T19:57:23.276Z,95.84
2023-01-07T19:59:50.845Z,96.53
2023-01-07T20:02:18.506Z,97.43
2023-01-07T20:04:46.406Z,97.52
2023-01-07T20:07:13.923Z,97.95
2023-01-07T20:09:41.505Z,97.50
2023-01-07T20:12:09.279Z,97.40
2023-01-07T20:14:36.753Z,97.10
2023-01-07T20:17:04.220Z,97.52
2023-01-07T20:19:31.999Z,97.72
2023-01-07T20:21:59.454Z,97.96
2023-01-07T20:24:27.014Z,97.80
2023-01-07T20:26:55.059Z,97.57
2023-01-07T20:29:22.740Z,97.59
2023-01-07T20:31:50.420Z,97.61
2023-01-07T20:34:18.470Z,97.80
2023-01-07T20:36:47.197Z,97.66
2023-01-07T20:39:15.141Z,97.48
2023-01-07T20:41:48.159Z,97.30
2023-01-07T20:44:15.905Z,97.17
2023-01-07T20:46:43.741Z,97.11
2023-01-07T20:49:12.404Z,97.23
2023-01-07T20:51:40.100Z,97.35
2023-01-07T20:54:08.092Z,97.24
2023-01-07T20:56:36.305Z,97.08
2023-01-07T20:59:04.172Z,97.01
2023-01-07T21:01:32.237Z,96.96
2023-01-07T21:04:01.853Z,96.98
2023-01-07T21:06:30.247Z,97.27
2023-01-07T21:08:58.168Z,97.16
2023-01-07T21:11:25.891Z,97.94
2023-01-07T21:13:56.110Z,98.02
2023-01-07T21:16:25.896Z,97.51
2023-01-07T21:18:53.544Z,97.32
2023-01-07T21:21:24.608Z,97.66
2023-01-07T21:23:53.833Z,97.55
2023-01-07T21:26:22.147Z,97.27
2023-01-07T21:28:52.789Z,97.15
2023-01-07T21:31:20.684Z,97.09
2023-01-07T21:33:48.304Z,96.99
2023-01-07T21:36:17.574Z,96.85
2023-01-07T21:38:46.820Z,96.67
2023-01-07T21:41:16.082Z,96.45
2023-01-07T21:43:45.086Z,96.65
2023-01-07T21:46:13.311Z,96.89
2023-01-07T21:48:43.995Z,97.61
2023-01-07T21:51:17.605Z,97.32
2023-01-07T21:53:45.168Z,97.21
2023-01-07T21:56:15.509Z,97.20
2023-01-07T21:58:47.642Z,97.15
2023-01-07T22:01:17.012Z,97.09
2023-01-07T22:03:48.011Z,97.76
2023-01-07T22:06:24.643Z,98.20
2023-01-07T22:08:57.177Z,97.80
2023-01-07T22:11:25.267Z,97.88
2023-01-07T22:13:54.389Z,99.83
2023-01-07T22:16:23.427Z,100.00
2023-01-07T22:18:51.345Z,100.00
2023-01-07T22:21:19.901Z,100.00
2023-01-07T22:23:47.902Z,100.00
2023-01-07T22:26:17.605Z,99.65
2023-01-07T22:28:53.809Z,99.57
2023-01-07T22:31:23.691Z,99.47
2023-01-07T22:33:52.181Z,99.44
2023-01-07T22:36:36.171Z,100.00
2023-01-07T22:39:34.503Z,100.00
2023-01-07T22:42:07.581Z,100.00
2023-01-07T22:44:40.783Z,100.00
2023-01-07T22:47:09.878Z,100.00
2023-01-07T22:49:38.487Z,100.00
2023-01-07T22:52:06.402Z,100.00
2023-01-07T22:54:34.974Z,100.00
2023-01-07T22:57:05.800Z,100.00
2023-01-07T22:59:33.433Z,100.00
2023-01-07T23:02:01.464Z,100.00
2023-01-07T23:04:29.379Z,100.00
2023-01-07T23:06:56.973Z,100.00
2023-01-07T23:09:24.597Z,100.00
2023-01-07T23:11:54.874Z,100.00
2023-01-07T23:14:22.992Z,100.00
2023-01-07T23:16:51.869Z,100.00
2023-01-07T23:19:20.628Z,100.00
2023-01-07T23:21:50.640Z,100.00
2023-01-07T23:24:18.740Z,100.00
2023-01-07T23:26:48.038Z,100.00
2023-01-07T23:29:15.691Z,100.00
2023-01-07T23:31:43.519Z,100.00
2023-01-07T23:34:11.837Z,100.00
2023-01-07T23:36:39.431Z,100.00
2023-01-07T23:39:07.122Z,100.00
2023-01-07T23:41:35.052Z,100.00
2023-01-07T23:44:02.662Z,100.00
2023-01-07T23:46:30.385Z,100.00
2023-01-07T23:48:58.163Z,100.00
2023-01-07T23:51:25.765Z,100.00
2023-01-07T23:53:53.734Z,100.00
2023-01-07T23:56:21.908Z,100.00
2023-01-07T23:58:50.281Z,100.00
